createdAt,value
2023-08-01T00:04:12.354Z,98886.38
2023-08-01T00:09:20.811Z,98880.02
2023-08-01T00:14:29.231Z,98873.73
2023-08-01T00:19:37.447Z,98866.64
2023-08-01T00:24:46.325Z,98866.71
2023-08-01T00:29:55.149Z,98866.41
2023-08-01T00:35:03.354Z,98861.91
2023-08-01T00:40:14.008Z,98857.48
2023-08-01T00:45:23.353Z,98850.30
2023-08-01T00:50:32.012Z,98855.63
2023-08-01T00:55:41.427Z,98847.29
2023-08-01T01:00:50.088Z,98838.50
2023-08-01T01:06:04.909Z,98831.48
2023-08-01T01:11:13.180Z,98824.67
2023-08-01T01:16:21.421Z,98816.74
2023-08-01T01:21:29.199Z,98808.63
2023-08-01T01:26:39.349Z,98799.10
2023-08-01T01:31:47.359Z,98786.42
2023-08-01T01:36:56.672Z,98781.16
2023-08-01T01:42:04.260Z,98774.23
2023-08-01T01:47:12.106Z,98769.46
2023-08-01T01:52:19.812Z,98759.88
2023-08-01T01:57:27.904Z,98748.33
2023-08-01T02:02:36.577Z,98744.16
2023-08-01T02:07:45.306Z,98741.12
2023-08-01T02:12:54.146Z,98732.97
2023-08-01T02:18:02.762Z,98732.14
2023-08-01T02:23:11.212Z,98733.54
2023-08-01T02:28:19.504Z,98728.31
2023-08-01T02:33:28.081Z,98728.86
2023-08-01T02:38:37.236Z,98728.48
2023-08-01T02:43:46.252Z,98718.84
2023-08-01T02:48:54.943Z,98715.77
2023-08-01T02:54:03.493Z,98709.57
2023-08-01T02:59:12.164Z,98704.65
2023-08-01T03:04:22.173Z,98707.41
2023-08-01T03:09:36.783Z,98704.88
2023-08-01T03:14:46.262Z,98706.58
2023-08-01T03:19:54.876Z,98703.22
2023-08-01T03:25:09.117Z,98702.80
2023-08-01T03:30:17.959Z,98700.06
2023-08-01T03:35:26.721Z,98698.41
2023-08-01T03:40:35.569Z,98691.86
2023-08-01T03:45:44.932Z,98695.17
2023-08-01T03:50:53.587Z,98691.99
2023-08-01T03:56:02.118Z,98687.77
2023-08-01T04:01:10.862Z,98693.48
2023-08-01T04:06:19.739Z,98686.70
2023-08-01T04:11:27.463Z,98684.95
2023-08-01T04:16:36.172Z,98683.02
2023-08-01T04:21:43.614Z,98678.98
2023-08-01T04:26:51.056Z,98680.38
2023-08-01T04:31:58.545Z,98678.39
2023-08-01T04:37:07.750Z,98679.46
2023-08-01T04:42:16.316Z,98671.16
2023-08-01T04:47:25.213Z,98662.95
2023-08-01T04:52:34.058Z,98661.27
2023-08-01T04:57:42.679Z,98657.95
2023-08-01T05:02:51.852Z,98651.98
2023-08-01T05:08:00.926Z,98651.25
2023-08-01T05:13:09.317Z,98646.92
2023-08-01T05:18:18.908Z,98637.65
2023-08-01T05:23:27.482Z,98629.65
2023-08-01T05:28:36.395Z,98632.40
2023-08-01T05:33:44.861Z,98627.46
2023-08-01T05:38:53.779Z,98627.85
2023-08-01T05:44:03.127Z,98628.46
2023-08-01T05:49:11.830Z,98619.91
2023-08-01T05:54:20.258Z,98621.84
2023-08-01T05:59:28.471Z,98616.83
2023-08-01T06:04:37.368Z,98615.14
2023-08-01T06:09:46.168Z,98615.78
2023-08-01T06:14:53.876Z,98612.38
2023-08-01T06:20:01.297Z,98613.33
2023-08-01T06:25:09.894Z,98609.13
2023-08-01T06:30:18.291Z,98606.33
2023-08-01T06:35:26.808Z,98587.48
2023-08-01T06:40:35.599Z,98591.87
2023-08-01T06:45:44.288Z,98597.11
2023-08-01T06:50:52.701Z,98586.02
2023-08-01T06:56:01.154Z,98580.63
2023-08-01T07:01:09.679Z,98577.98
2023-08-01T07:06:18.768Z,98573.60
2023-08-01T07:11:26.700Z,98564.95
2023-08-01T07:16:34.215Z,98559.19
2023-08-01T07:21:42.522Z,98556.59
2023-08-01T07:26:51.163Z,98550.34
2023-08-01T07:31:59.487Z,98542.35
2023-08-01T07:37:07.486Z,98536.50
2023-08-01T07:42:15.576Z,98536.77
2023-08-01T07:47:25.424Z,98520.55
2023-08-01T07:52:33.875Z,98518.54
2023-08-01T07:57:41.335Z,98514.80
2023-08-01T08:02:52.967Z,98516.25
2023-08-01T08:07:59.680Z,98515.55
2023-08-01T08:13:07.759Z,98513.62
2023-08-01T08:18:16.245Z,98509.77
2023-08-01T08:23:25.569Z,98500.39
2023-08-01T08:28:37.316Z,98493.25
2023-08-01T08:33:45.986Z,98490.39
2023-08-01T08:38:54.231Z,98486.48
2023-08-01T08:44:04.234Z,98483.89
2023-08-01T08:49:13.365Z,98475.40
2023-08-01T08:54:22.753Z,98476.57
2023-08-01T08:59:32.424Z,98472.34
2023-08-01T09:04:40.393Z,98468.98
2023-08-01T09:09:49.537Z,98458.79
2023-08-01T09:15:01.914Z,98461.75
2023-08-01T09:20:14.364Z,98455.89
2023-08-01T09:25:22.897Z,98446.83
2023-08-01T09:30:33.244Z,98443.63
2023-08-01T09:35:45.950Z,98437.48
2023-08-01T09:40:55.193Z,98433.02
2023-08-01T09:46:02.735Z,98425.33
2023-08-01T09:51:13.748Z,98426.08
2023-08-01T09:56:23.897Z,98421.25
2023-08-01T10:01:34.676Z,98420.35
2023-08-01T10:06:50.612Z,98413.89
2023-08-01T10:11:59.793Z,98410.25
2023-08-01T10:17:11.531Z,98411.41
2023-08-01T10:22:20.565Z,98408.13
2023-08-01T10:27:29.055Z,98412.54
2023-08-01T10:32:39.249Z,98410.88
2023-08-01T10:37:48.902Z,98407.24
2023-08-01T10:42:56.938Z,98408.43
2023-08-01T10:48:15.413Z,98406.20
2023-08-01T10:53:23.126Z,98406.75
2023-08-01T10:58:33.271Z,98411.80
2023-08-01T11:03:43.719Z,98409.27
2023-08-01T11:08:51.427Z,98410.11
2023-08-01T11:13:59.291Z,98407.48
2023-08-01T11:19:07.044Z,98413.20
2023-08-01T11:24:15.136Z,98414.25
2023-08-01T11:29:25.846Z,98413.45
2023-08-01T11:34:48.013Z,98409.52
2023-08-01T11:39:59.733Z,98409.11
2023-08-01T11:45:19.045Z,98401.98
2023-08-01T11:50:30.740Z,98398.52
2023-08-01T11:55:40.639Z,98391.25
2023-08-01T12:00:50.174Z,98389.98
2023-08-01T12:06:09.365Z,98389.81
2023-08-01T12:11:29.507Z,98390.27
2023-08-01T12:16:38.649Z,98386.02
2023-08-01T12:21:47.202Z,98389.94
2023-08-01T12:26:55.712Z,98394.96
2023-08-01T12:32:04.613Z,98401.50
2023-08-01T12:37:14.269Z,98404.08
2023-08-01T12:42:22.368Z,98405.00
2023-08-01T12:47:29.921Z,98404.21
2023-08-01T12:52:38.324Z,98395.39
2023-08-01T12:57:47.600Z,98388.87
2023-08-01T13:02:55.977Z,98377.43
2023-08-01T13:08:04.417Z,98370.18
2023-08-01T13:13:11.706Z,98363.80
2023-08-01T13:18:20.445Z,98360.64
2023-08-01T13:23:29.786Z,98357.49
2023-08-01T13:28:38.132Z,98350.46
2023-08-01T13:33:47.488Z,98337.52
2023-08-01T13:38:56.637Z,98329.65
2023-08-01T13:44:04.465Z,98328.74
2023-08-01T13:49:14.948Z,98323.86
2023-08-01T13:54:22.851Z,98320.41
2023-08-01T13:59:31.232Z,98315.39
2023-08-01T14:04:39.294Z,98308.00
2023-08-01T14:09:47.568Z,98304.81
2023-08-01T14:14:56.691Z,98301.20
2023-08-01T14:20:07.411Z,98294.27
2023-08-01T14:25:15.347Z,98279.45
2023-08-01T14:30:23.163Z,98276.30
2023-08-01T14:35:30.743Z,98273.84
2023-08-01T14:40:43.350Z,98265.63
2023-08-01T14:45:53.981Z,98263.07
2023-08-01T14:51:02.493Z,98253.70
2023-08-01T14:56:13.097Z,98242.67
2023-08-01T15:01:21.461Z,98236.47
2023-08-01T15:06:29.132Z,98229.70
2023-08-01T15:11:37.840Z,98224.56
2023-08-01T15:16:46.512Z,98222.84
2023-08-01T15:21:56.341Z,98216.20
2023-08-01T15:27:05.009Z,98200.23
2023-08-01T15:32:14.384Z,98189.86
2023-08-01T15:37:22.932Z,98183.05
2023-08-01T15:42:32.555Z,98179.52
2023-08-01T15:47:40.871Z,98178.16
2023-08-01T15:52:49.473Z,98178.52
2023-08-01T15:57:57.762Z,98180.17
2023-08-01T16:03:07.648Z,98174.79
2023-08-01T16:08:16.489Z,98167.50
2023-08-01T16:13:25.836Z,98163.77
2023-08-01T16:18:34.321Z,98161.79
2023-08-01T16:23:42.898Z,98160.38
2023-08-01T16:28:51.401Z,98166.45
2023-08-01T16:34:01.169Z,98166.75
2023-08-01T16:39:09.760Z,98160.11
2023-08-01T16:44:18.649Z,98165.36
2023-08-01T16:49:27.479Z,98171.15
2023-08-01T16:54:36.855Z,98157.66
2023-08-01T16:59:45.632Z,98161.77
2023-08-01T17:04:54.221Z,98172.77
2023-08-01T17:10:06.089Z,98176.71
2023-08-01T17:15:15.112Z,98175.05
2023-08-01T17:20:25.509Z,98180.18
2023-08-01T17:25:33.787Z,98178.11
2023-08-01T17:30:43.801Z,98174.77
2023-08-01T17:35:53.171Z,98176.03
2023-08-01T17:41:07.733Z,98170.62
2023-08-01T17:46:15.427Z,98162.98
2023-08-01T17:51:23.523Z,98164.89
2023-08-01T17:56:31.400Z,98174.84
2023-08-01T18:01:39.422Z,98174.33
2023-08-01T18:06:47.779Z,98168.05
2023-08-01T18:11:55.686Z,98178.33
2023-08-01T18:17:03.477Z,98180.17
2023-08-01T18:22:11.580Z,98183.40
2023-08-01T18:27:19.751Z,98201.21
2023-08-01T18:32:27.708Z,98209.90
2023-08-01T18:37:37.465Z,98202.73
2023-08-01T18:42:45.815Z,98202.48
2023-08-01T18:47:55.260Z,98203.77
2023-08-01T18:53:02.984Z,98212.00
2023-08-01T18:58:11.589Z,98218.86
2023-08-01T19:03:20.418Z,98212.80
2023-08-01T19:08:30.594Z,98207.96
2023-08-01T19:13:39.202Z,98214.55
2023-08-01T19:18:47.470Z,98213.23
2023-08-01T19:23:56.903Z,98215.45
2023-08-01T19:29:06.087Z,98218.14
2023-08-01T19:34:14.981Z,98220.05
2023-08-01T19:39:23.596Z,98223.66
2023-08-01T19:44:34.153Z,98223.44
2023-08-01T19:49:43.552Z,98226.46
2023-08-01T19:54:52.973Z,98230.18
2023-08-01T20:00:00.604Z,98230.33
2023-08-01T20:05:08.733Z,98233.83
2023-08-01T20:10:16.880Z,98243.42
2023-08-01T20:15:24.301Z,98250.35
2023-08-01T20:20:32.858Z,98260.55
2023-08-01T20:25:41.998Z,98265.90
2023-08-01T20:30:50.495Z,98273.65
2023-08-01T20:36:07.544Z,98282.59
2023-08-01T20:41:19.204Z,98277.13
2023-08-01T20:46:27.465Z,98261.21
2023-08-01T20:51:35.592Z,98281.23
2023-08-01T20:56:43.850Z,98291.40
2023-08-01T21:01:52.879Z,98295.79
2023-08-01T21:07:01.468Z,98296.02
2023-08-01T21:12:12.113Z,98291.09
2023-08-01T21:17:21.254Z,98296.39
2023-08-01T21:22:30.604Z,98290.52
2023-08-01T21:27:39.811Z,98297.65
2023-08-01T21:32:48.888Z,98301.95
2023-08-01T21:37:57.392Z,98301.45
2023-08-01T21:43:06.072Z,98306.30
2023-08-01T21:48:14.704Z,98311.30
2023-08-01T21:53:23.115Z,98309.58
2023-08-01T21:58:32.058Z,98309.75
2023-08-01T22:03:40.667Z,98311.29
2023-08-01T22:08:49.069Z,98314.74
2023-08-01T22:13:57.956Z,98317.46
2023-08-01T22:19:06.327Z,98324.21
2023-08-01T22:24:15.162Z,98328.98
2023-08-01T22:29:24.028Z,98329.27
2023-08-01T22:34:31.709Z,98318.76
2023-08-01T22:39:39.300Z,98310.20
2023-08-01T22:44:46.721Z,98310.67
2023-08-01T22:50:04.796Z,98313.58
2023-08-01T22:55:15.432Z,98322.55
2023-08-01T23:00:23.177Z,98330.02
2023-08-01T23:05:32.392Z,98327.86
2023-08-01T23:10:44.752Z,98320.13
2023-08-01T23:15:54.235Z,98336.64
2023-08-01T23:21:03.662Z,98340.27
2023-08-01T23:26:13.099Z,98345.53
2023-08-01T23:31:21.757Z,98344.37
2023-08-01T23:36:30.408Z,98336.95
2023-08-01T23:41:39.067Z,98337.98
2023-08-01T23:46:46.458Z,98357.24
2023-08-01T23:51:54.108Z,98371.25
2023-08-01T23:57:02.564Z,98386.52
